createdAt,value
2018-11-06T00:02:10.059Z,43.77
2018-11-06T00:04:48.260Z,44.70
2018-11-06T00:07:21.994Z,44.40
2018-11-06T00:09:55.602Z,43.83
2018-11-06T00:12:25.936Z,43.10
2018-11-06T00:15:03.319Z,43.63
2018-11-06T00:17:33.599Z,43.03
2018-11-06T00:20:03.356Z,42.43
2018-11-06T00:22:34.128Z,41.33
2018-11-06T00:25:04.424Z,43.50
2018-11-06T00:27:39.372Z,43.53
2018-11-06T00:30:09.239Z,43.17
2018-11-06T00:32:38.021Z,42.20
2018-11-06T00:35:06.846Z,41.97
2018-11-06T00:37:34.989Z,45.00
2018-11-06T00:40:03.178Z,43.10
2018-11-06T00:42:31.337Z,42.97
2018-11-06T00:44:59.509Z,42.53
2018-11-06T00:47:27.634Z,41.70
2018-11-06T00:49:55.753Z,42.40
2018-11-06T00:52:23.878Z,43.00
2018-11-06T00:54:51.987Z,43.30
2018-11-06T00:57:20.122Z,43.00
2018-11-06T00:59:48.657Z,41.73
2018-11-06T01:02:16.778Z,41.43
2018-11-06T01:04:45.795Z,40.47
2018-11-06T01:07:13.974Z,41.17
2018-11-06T01:09:42.120Z,42.77
2018-11-06T01:12:10.254Z,41.90
2018-11-06T01:14:38.424Z,41.97
2018-11-06T01:17:06.560Z,41.77
2018-11-06T01:19:34.835Z,42.77
2018-11-06T01:22:02.990Z,42.07
2018-11-06T01:24:31.725Z,39.77
2018-11-06T01:26:59.869Z,43.17
2018-11-06T01:29:28.042Z,42.23
2018-11-06T01:31:56.993Z,41.97
2018-11-06T01:34:25.189Z,41.90
2018-11-06T01:36:53.336Z,42.60
2018-11-06T01:39:21.493Z,41.73
2018-11-06T01:41:49.649Z,40.00
2018-11-06T01:44:18.046Z,40.53
2018-11-06T01:46:46.524Z,39.77
2018-11-06T01:49:14.721Z,42.00
2018-11-06T01:51:42.962Z,40.77
2018-11-06T01:54:11.219Z,41.33
2018-11-06T01:56:39.402Z,41.30
2018-11-06T01:59:07.595Z,42.03
2018-11-06T02:01:35.741Z,41.17
2018-11-06T02:04:03.860Z,43.03
2018-11-06T02:06:32.509Z,42.03
2018-11-06T02:09:00.878Z,41.97
2018-11-06T02:11:29.004Z,42.50
2018-11-06T02:13:57.214Z,42.30
2018-11-06T02:16:25.382Z,43.93
2018-11-06T02:18:53.618Z,42.70
2018-11-06T02:21:21.788Z,43.63
2018-11-06T02:23:49.912Z,42.80
2018-11-06T02:26:18.038Z,43.23
2018-11-06T02:28:46.194Z,44.07
2018-11-06T02:31:14.390Z,42.50
2018-11-06T02:33:42.777Z,41.67
2018-11-06T02:36:10.972Z,42.03
2018-11-06T02:38:39.277Z,39.83
2018-11-06T02:41:07.717Z,40.67
2018-11-06T02:43:35.870Z,40.03
2018-11-06T02:46:04.047Z,39.37
2018-11-06T02:48:32.286Z,38.13
2018-11-06T02:51:00.506Z,37.33
2018-11-06T02:53:28.678Z,35.33
2018-11-06T02:55:56.897Z,35.73
2018-11-06T02:58:25.007Z,34.43
2018-11-06T03:00:53.232Z,33.80
2018-11-06T03:03:21.373Z,33.40
2018-11-06T03:05:49.701Z,33.23
2018-11-06T03:08:17.873Z,30.87
2018-11-06T03:10:45.984Z,31.00
2018-11-06T03:13:14.163Z,32.93
2018-11-06T03:15:42.339Z,32.57
2018-11-06T03:18:10.503Z,32.37
2018-11-06T03:20:38.677Z,33.03
2018-11-06T03:23:06.758Z,31.60
2018-11-06T03:25:35.014Z,31.47
2018-11-06T03:28:03.186Z,33.43
2018-11-06T03:30:31.353Z,31.37
2018-11-06T03:32:59.506Z,30.10
2018-11-06T03:35:27.620Z,30.93
2018-11-06T03:37:55.817Z,30.27
2018-11-06T03:40:24.645Z,29.83
2018-11-06T03:42:52.810Z,31.13
2018-11-06T03:45:20.931Z,30.17
2018-11-06T03:47:49.202Z,30.13
2018-11-06T03:50:17.597Z,29.03
2018-11-06T03:52:45.745Z,30.20
2018-11-06T03:55:13.900Z,30.67
2018-11-06T03:57:42.095Z,28.73
2018-11-06T04:00:13.299Z,29.27
2018-11-06T04:02:41.889Z,29.33
2018-11-06T04:05:12.460Z,29.90
2018-11-06T04:07:40.643Z,30.30
2018-11-06T04:10:09.642Z,28.17
2018-11-06T04:12:38.322Z,29.47
2018-11-06T04:15:06.881Z,30.53
2018-11-06T04:17:35.133Z,30.50
2018-11-06T04:20:03.286Z,31.77
2018-11-06T04:22:31.614Z,30.50
2018-11-06T04:24:59.829Z,29.33
2018-11-06T04:27:27.936Z,29.67
2018-11-06T04:29:56.162Z,30.60
2018-11-06T04:32:24.331Z,32.00
2018-11-06T04:34:52.580Z,30.83
2018-11-06T04:37:20.857Z,30.50
2018-11-06T04:39:48.977Z,30.83
2018-11-06T04:42:17.212Z,32.33
2018-11-06T04:44:45.365Z,30.70
2018-11-06T04:47:13.665Z,32.13
2018-11-06T04:49:41.776Z,30.57
2018-11-06T04:52:09.954Z,30.50
2018-11-06T04:54:38.137Z,29.57
2018-11-06T04:57:06.353Z,30.10
2018-11-06T04:59:34.447Z,31.60
2018-11-06T05:02:02.812Z,32.00
2018-11-06T05:04:30.990Z,30.50
2018-11-06T05:06:59.219Z,30.93
2018-11-06T05:09:27.914Z,31.10
2018-11-06T05:11:56.193Z,30.17
2018-11-06T05:14:26.032Z,30.17
2018-11-06T05:16:55.834Z,30.37
2018-11-06T05:19:25.461Z,31.73
2018-11-06T05:21:53.720Z,31.80
2018-11-06T05:24:21.881Z,31.00
2018-11-06T05:26:50.236Z,30.00
2018-11-06T05:29:18.485Z,28.80
2018-11-06T05:31:46.610Z,31.10
2018-11-06T05:34:14.839Z,29.53
2018-11-06T05:36:43.021Z,29.93
2018-11-06T05:39:17.558Z,29.83
2018-11-06T05:41:45.742Z,30.70
2018-11-06T05:44:13.993Z,30.50
2018-11-06T05:46:42.157Z,28.33
2018-11-06T05:49:11.353Z,29.83
2018-11-06T05:51:40.188Z,30.23
2018-11-06T05:54:08.565Z,30.83
2018-11-06T05:56:36.805Z,29.70
2018-11-06T05:59:04.951Z,29.73
2018-11-06T06:01:33.093Z,28.20
2018-11-06T06:04:01.801Z,28.70
2018-11-06T06:06:30.251Z,29.10
2018-11-06T06:08:58.441Z,28.53
2018-11-06T06:11:26.651Z,28.33
2018-11-06T06:13:54.824Z,26.97
2018-11-06T06:16:23.001Z,27.27
2018-11-06T06:18:51.230Z,27.80
2018-11-06T06:21:19.969Z,25.53
2018-11-06T06:23:48.189Z,25.80
2018-11-06T06:26:16.427Z,28.57
2018-11-06T06:28:44.620Z,26.90
2018-11-06T06:31:12.864Z,27.20
2018-11-06T06:33:42.268Z,26.53
2018-11-06T06:36:10.443Z,26.07
2018-11-06T06:38:38.690Z,26.80
2018-11-06T06:41:06.871Z,28.47
2018-11-06T06:43:34.964Z,26.40
2018-11-06T06:46:03.281Z,28.53
2018-11-06T06:48:31.494Z,27.73
2018-11-06T06:50:59.645Z,28.23
2018-11-06T06:53:28.417Z,27.20
2018-11-06T06:55:56.604Z,26.40
2018-11-06T06:58:25.497Z,25.87
2018-11-06T07:00:53.993Z,24.47
2018-11-06T07:03:22.195Z,23.87
2018-11-06T07:05:50.377Z,24.87
2018-11-06T07:08:18.828Z,25.77
2018-11-06T07:10:46.981Z,25.53
2018-11-06T07:13:15.140Z,25.03
2018-11-06T07:15:43.333Z,24.80
2018-11-06T07:18:11.677Z,25.33
2018-11-06T07:20:40.084Z,25.30
2018-11-06T07:23:08.926Z,24.23
2018-11-06T07:25:37.046Z,23.37
2018-11-06T07:28:06.416Z,25.63
2018-11-06T07:30:34.710Z,23.87
2018-11-06T07:33:02.868Z,23.40
2018-11-06T07:35:31.200Z,23.10
2018-11-06T07:37:59.321Z,22.30
2018-11-06T07:40:27.685Z,22.37
2018-11-06T07:42:55.975Z,24.70
2018-11-06T07:45:24.252Z,23.17
2018-11-06T07:47:52.484Z,23.97
2018-11-06T07:50:20.912Z,23.03
2018-11-06T07:52:49.091Z,24.50
2018-11-06T07:55:18.377Z,24.27
2018-11-06T07:57:46.560Z,21.30
2018-11-06T08:00:20.202Z,21.00
2018-11-06T08:02:48.876Z,20.73
2018-11-06T08:05:23.603Z,22.13
2018-11-06T08:07:52.199Z,22.93
2018-11-06T08:10:20.425Z,22.80
2018-11-06T08:12:49.870Z,23.13
2018-11-06T08:15:18.619Z,23.27
2018-11-06T08:17:47.736Z,22.27
2018-11-06T08:20:16.746Z,22.80
2018-11-06T08:22:45.369Z,22.70
2018-11-06T08:25:14.650Z,22.17
2018-11-06T08:27:43.676Z,23.47
2018-11-06T08:30:12.272Z,24.40
2018-11-06T08:32:40.757Z,24.27
2018-11-06T08:35:11.762Z,25.47
2018-11-06T08:37:40.027Z,25.13
2018-11-06T08:40:09.100Z,25.47
2018-11-06T08:42:37.461Z,25.20
2018-11-06T08:45:06.946Z,25.27
2018-11-06T08:47:35.245Z,25.53
2018-11-06T08:50:03.481Z,25.40
2018-11-06T08:52:31.636Z,25.70
2018-11-06T08:54:59.834Z,25.30
2018-11-06T08:57:28.626Z,24.20
2018-11-06T08:59:56.796Z,24.80
2018-11-06T09:02:24.968Z,25.83
2018-11-06T09:04:53.199Z,24.87
2018-11-06T09:07:21.435Z,24.53
2018-11-06T09:09:49.629Z,26.13
2018-11-06T09:12:17.844Z,25.77
2018-11-06T09:14:46.057Z,25.27
2018-11-06T09:17:14.210Z,26.17
2018-11-06T09:19:42.461Z,26.37
2018-11-06T09:22:10.885Z,28.27
2018-11-06T09:24:39.123Z,28.97
2018-11-06T09:27:08.063Z,28.90
2018-11-06T09:29:36.234Z,28.93
2018-11-06T09:32:05.273Z,28.10
2018-11-06T09:34:33.494Z,27.07
2018-11-06T09:37:01.718Z,26.17
2018-11-06T09:39:29.949Z,27.73
2018-11-06T09:41:58.121Z,29.00
2018-11-06T09:44:26.315Z,27.13
2018-11-06T09:46:54.465Z,27.07
2018-11-06T09:49:22.641Z,26.63
2018-11-06T09:51:50.827Z,27.93
2018-11-06T09:54:19.002Z,28.03
2018-11-06T09:56:47.167Z,28.63
2018-11-06T09:59:15.289Z,29.50
2018-11-06T10:01:43.530Z,29.63
2018-11-06T10:04:11.725Z,29.13
2018-11-06T10:06:40.239Z,28.03
2018-11-06T10:09:09.199Z,25.90
2018-11-06T10:11:37.406Z,28.43
2018-11-06T10:14:05.684Z,29.00
2018-11-06T10:16:33.989Z,30.47
2018-11-06T10:19:02.126Z,29.53
2018-11-06T10:21:30.342Z,29.73
2018-11-06T10:23:58.625Z,30.63
2018-11-06T10:26:27.086Z,30.10
2018-11-06T10:28:55.276Z,29.13
2018-11-06T10:31:23.606Z,28.50
2018-11-06T10:33:51.835Z,29.43
2018-11-06T10:36:20.030Z,30.13
2018-11-06T10:38:48.173Z,30.03
2018-11-06T10:41:16.417Z,30.03
2018-11-06T10:43:45.034Z,29.47
2018-11-06T10:46:13.209Z,27.63
2018-11-06T10:48:41.385Z,29.00
2018-11-06T10:51:09.657Z,29.13
2018-11-06T10:53:37.779Z,29.03
2018-11-06T10:56:05.885Z,30.80
2018-11-06T10:58:34.162Z,29.07
2018-11-06T11:01:07.719Z,29.87
2018-11-06T11:03:39.382Z,27.87
2018-11-06T11:06:07.549Z,27.37
2018-11-06T11:08:35.885Z,29.03
2018-11-06T11:11:04.054Z,28.87
2018-11-06T11:13:32.319Z,29.07
2018-11-06T11:16:00.288Z,28.83
2018-11-06T11:18:28.495Z,28.53
2018-11-06T11:20:56.628Z,28.47
2018-11-06T11:23:24.772Z,27.87
2018-11-06T11:25:52.929Z,27.87
2018-11-06T11:28:21.077Z,28.27
2018-11-06T11:30:49.211Z,27.57
2018-11-06T11:33:17.328Z,27.20
2018-11-06T11:35:45.496Z,28.10
2018-11-06T11:38:13.730Z,27.93
2018-11-06T11:40:42.183Z,26.47
2018-11-06T11:43:10.408Z,25.53
2018-11-06T11:45:38.573Z,25.37
2018-11-06T11:48:06.673Z,27.03
2018-11-06T11:50:34.845Z,25.73
2018-11-06T11:53:02.984Z,25.90
2018-11-06T11:55:31.113Z,25.83
2018-11-06T11:57:59.864Z,24.03
2018-11-06T12:00:28.776Z,24.43
2018-11-06T12:02:57.453Z,24.97
2018-11-06T12:05:26.151Z,24.83
2018-11-06T12:07:54.301Z,25.37
2018-11-06T12:10:22.457Z,25.17
2018-11-06T12:12:50.596Z,24.63
2018-11-06T12:15:19.409Z,23.90
2018-11-06T12:17:47.970Z,25.03
2018-11-06T12:20:16.606Z,24.77
2018-11-06T12:22:45.009Z,23.50
2018-11-06T12:25:14.001Z,24.97
2018-11-06T12:27:42.562Z,25.87
2018-11-06T12:30:13.530Z,25.80
2018-11-06T12:32:42.413Z,26.03
2018-11-06T12:35:11.613Z,24.97
2018-11-06T12:37:40.262Z,25.57
2018-11-06T12:40:09.787Z,25.67
2018-11-06T12:42:38.810Z,26.30
2018-11-06T12:45:09.071Z,25.93
2018-11-06T12:47:40.179Z,25.60
2018-11-06T12:50:09.522Z,24.33
2018-11-06T12:52:38.725Z,24.73
2018-11-06T12:55:08.941Z,23.87
2018-11-06T12:57:37.587Z,24.10
2018-11-06T13:00:07.905Z,24.80
2018-11-06T13:02:38.266Z,25.13
2018-11-06T13:05:06.788Z,25.07
2018-11-06T13:07:35.066Z,26.57
2018-11-06T13:10:04.228Z,25.43
2018-11-06T13:12:32.517Z,24.20
2018-11-06T13:15:00.822Z,24.57
2018-11-06T13:17:29.662Z,24.77
2018-11-06T13:19:57.874Z,23.30
2018-11-06T13:22:27.037Z,25.03
2018-11-06T13:24:55.495Z,24.20
2018-11-06T13:27:23.745Z,23.70
2018-11-06T13:29:51.931Z,23.17
2018-11-06T13:32:20.231Z,23.03
2018-11-06T13:34:49.805Z,22.70
2018-11-06T13:37:18.036Z,22.90
2018-11-06T13:39:46.616Z,22.80
2018-11-06T13:42:15.037Z,22.03
2018-11-06T13:44:43.406Z,21.90
2018-11-06T13:47:11.505Z,24.47
2018-11-06T13:49:39.657Z,25.90
2018-11-06T13:52:07.908Z,25.80
2018-11-06T13:54:36.143Z,25.03
2018-11-06T13:57:04.305Z,25.20
2018-11-06T13:59:32.622Z,25.40
2018-11-06T14:02:01.316Z,24.50
2018-11-06T14:04:29.552Z,24.53
2018-11-06T14:06:57.734Z,25.03
2018-11-06T14:09:25.964Z,25.27
2018-11-06T14:11:54.334Z,24.73
2018-11-06T14:14:23.054Z,24.60
2018-11-06T14:16:52.444Z,24.40
2018-11-06T14:19:20.642Z,25.07
2018-11-06T14:21:49.361Z,24.20
2018-11-06T14:24:17.671Z,24.67
2018-11-06T14:26:45.904Z,24.63
2018-11-06T14:29:14.242Z,23.93
2018-11-06T14:31:42.793Z,25.33
2018-11-06T14:34:14.613Z,25.73
2018-11-06T14:36:42.918Z,26.30
2018-11-06T14:39:12.236Z,25.07
2018-11-06T14:41:41.651Z,27.33
2018-11-06T14:44:10.989Z,29.37
2018-11-06T14:46:39.833Z,25.37
2018-11-06T14:49:08.645Z,26.93
2018-11-06T14:51:36.922Z,25.77
2018-11-06T14:54:05.144Z,27.83
2018-11-06T14:56:34.143Z,25.93
2018-11-06T14:59:03.369Z,25.60
2018-11-06T15:01:32.043Z,25.17
2018-11-06T15:04:02.588Z,25.37
2018-11-06T15:06:31.909Z,25.37
2018-11-06T15:09:04.153Z,25.97
2018-11-06T15:11:33.147Z,25.27
2018-11-06T15:14:03.623Z,25.40
2018-11-06T15:16:32.591Z,27.00
2018-11-06T15:19:01.351Z,26.27
2018-11-06T15:21:29.859Z,24.57
2018-11-06T15:23:58.896Z,27.03
2018-11-06T15:26:27.081Z,25.73
2018-11-06T15:28:55.490Z,23.57
2018-11-06T15:31:23.677Z,25.10
2018-11-06T15:33:51.919Z,23.90
2018-11-06T15:36:20.161Z,24.90
2018-11-06T15:38:48.626Z,24.63
2018-11-06T15:41:17.008Z,24.17
2018-11-06T15:43:56.564Z,25.33
2018-11-06T15:46:47.739Z,23.50
2018-11-06T15:49:16.065Z,25.63
2018-11-06T15:51:45.705Z,25.33
2018-11-06T15:54:15.141Z,25.93
2018-11-06T15:56:45.681Z,26.10
2018-11-06T15:59:14.636Z,25.97
2018-11-06T16:01:45.053Z,24.77
2018-11-06T16:04:13.171Z,25.83
2018-11-06T16:06:41.593Z,25.40
2018-11-06T16:09:09.893Z,26.17
2018-11-06T16:11:38.781Z,26.73
2018-11-06T16:14:07.108Z,26.37
2018-11-06T16:16:35.473Z,27.07
2018-11-06T16:19:04.480Z,27.43
2018-11-06T16:21:33.925Z,27.97
2018-11-06T16:24:03.443Z,27.33
2018-11-06T16:26:31.897Z,26.83
2018-11-06T16:29:03.102Z,28.17
2018-11-06T16:31:31.626Z,26.70
2018-11-06T16:34:00.662Z,27.77
2018-11-06T16:36:29.115Z,26.90
2018-11-06T16:38:58.368Z,27.83
2018-11-06T16:41:30.823Z,26.27
2018-11-06T16:44:00.564Z,26.73
2018-11-06T16:46:29.251Z,26.37
2018-11-06T16:48:57.512Z,26.93
2018-11-06T16:51:25.677Z,28.27
2018-11-06T16:53:53.954Z,27.17
2018-11-06T16:56:25.059Z,27.43
2018-11-06T16:58:55.321Z,28.10
2018-11-06T17:01:24.555Z,26.80
2018-11-06T17:03:53.903Z,27.20
2018-11-06T17:06:27.729Z,27.23
2018-11-06T17:08:57.092Z,27.90
2018-11-06T17:11:27.210Z,26.60
2018-11-06T17:13:55.697Z,27.20
2018-11-06T17:16:25.396Z,27.53
2018-11-06T17:18:54.151Z,27.97
2018-11-06T17:21:22.756Z,27.33
2018-11-06T17:23:51.057Z,27.67
2018-11-06T17:26:20.038Z,27.30
2018-11-06T17:28:48.461Z,27.93
2018-11-06T17:31:16.702Z,27.17
2018-11-06T17:33:45.007Z,28.07
2018-11-06T17:36:42.213Z,27.80
2018-11-06T17:39:12.271Z,27.60
2018-11-06T17:41:44.458Z,26.80
2018-11-06T17:44:13.331Z,27.27
2018-11-06T17:46:44.905Z,28.03
2018-11-06T17:49:18.667Z,27.60
2018-11-06T17:51:46.841Z,27.87
2018-11-06T17:54:15.027Z,27.77
2018-11-06T17:56:43.417Z,27.57
2018-11-06T17:59:12.377Z,27.33
2018-11-06T18:01:40.745Z,27.90
2018-11-06T18:04:09.601Z,27.40
2018-11-06T18:06:37.812Z,27.70
2018-11-06T18:09:08.510Z,26.93
2018-11-06T18:14:21.311Z,28.13
2018-11-06T18:16:49.510Z,30.43
2018-11-06T18:19:17.745Z,28.30
2018-11-06T18:21:46.125Z,27.87
2018-11-06T18:24:14.465Z,27.03
2018-11-06T18:26:42.665Z,28.40
2018-11-06T18:29:10.910Z,28.03
2018-11-06T18:31:39.180Z,28.23
2018-11-06T18:34:07.338Z,28.17
2018-11-06T18:36:35.541Z,28.67
2018-11-06T18:39:04.704Z,28.13
2018-11-06T18:41:32.906Z,28.30
2018-11-06T18:44:01.151Z,28.17
2018-11-06T18:46:29.350Z,28.10
2018-11-06T18:49:00.617Z,27.40
2018-11-06T18:51:28.810Z,27.73
2018-11-06T18:53:57.488Z,30.23
2018-11-06T18:56:29.278Z,31.63
2018-11-06T18:58:57.839Z,29.10
2018-11-06T19:01:26.213Z,27.60
2018-11-06T19:03:54.361Z,29.53
2018-11-06T19:06:22.729Z,27.70
2018-11-06T19:08:50.912Z,28.30
2018-11-06T19:11:19.183Z,28.57
2018-11-06T19:13:47.389Z,28.50
2018-11-06T19:16:15.723Z,28.77
2018-11-06T19:18:43.866Z,29.50
2018-11-06T19:21:12.157Z,28.20
2018-11-06T19:23:40.341Z,28.47
2018-11-06T19:26:08.464Z,28.77
2018-11-06T19:28:36.715Z,27.40
2018-11-06T19:31:04.930Z,29.37
2018-11-06T19:33:34.627Z,28.73
2018-11-06T19:36:02.894Z,27.77
2018-11-06T19:38:31.179Z,28.00
2018-11-06T19:40:59.494Z,27.93
2018-11-06T19:43:27.891Z,28.20
2018-11-06T19:45:56.289Z,28.97
2018-11-06T19:48:24.650Z,27.73
2018-11-06T19:50:52.878Z,30.03
2018-11-06T19:53:21.243Z,29.50
2018-11-06T19:55:49.354Z,29.73
2018-11-06T19:58:17.532Z,28.50
2018-11-06T20:00:45.856Z,29.97
2018-11-06T20:03:14.286Z,28.97
2018-11-06T20:05:43.233Z,28.43
2018-11-06T20:08:12.201Z,27.87
2018-11-06T20:10:41.974Z,28.10
2018-11-06T20:13:11.298Z,29.10
2018-11-06T20:15:39.613Z,29.27
2018-11-06T20:18:07.801Z,29.37
2018-11-06T20:20:36.001Z,29.37
2018-11-06T20:23:04.480Z,28.50
2018-11-06T20:25:32.916Z,28.90
2018-11-06T20:28:01.243Z,29.93
2018-11-06T20:30:29.434Z,29.63
2018-11-06T20:32:57.677Z,28.90
2018-11-06T20:35:25.994Z,29.00
2018-11-06T20:37:54.491Z,30.20
2018-11-06T20:40:24.009Z,29.33
2018-11-06T20:42:52.473Z,29.37
2018-11-06T20:45:21.222Z,29.63
2018-11-06T20:47:49.650Z,29.30
2018-11-06T20:50:20.400Z,29.40
2018-11-06T20:52:49.207Z,28.40
2018-11-06T20:55:18.900Z,28.90
2018-11-06T20:57:47.004Z,31.03
2018-11-06T21:00:24.170Z,29.57
2018-11-06T21:02:53.537Z,30.43
2018-11-06T21:05:26.794Z,29.63
2018-11-06T21:07:58.956Z,29.53
2018-11-06T21:10:29.433Z,30.53
2018-11-06T21:12:58.959Z,31.37
2018-11-06T21:15:27.521Z,31.93
2018-11-06T21:17:55.965Z,30.30
2018-11-06T21:20:24.342Z,30.67
2018-11-06T21:22:52.569Z,30.93
2018-11-06T21:25:21.105Z,31.00
2018-11-06T21:27:49.357Z,29.23
2018-11-06T21:30:19.285Z,29.67
2018-11-06T21:32:49.202Z,28.23
2018-11-06T21:35:18.637Z,29.17
2018-11-06T21:37:49.123Z,29.37
2018-11-06T21:40:18.673Z,28.30
2018-11-06T21:42:47.480Z,28.97
2018-11-06T21:45:16.983Z,29.10
2018-11-06T21:47:46.683Z,30.90
2018-11-06T21:50:16.744Z,29.77
2018-11-06T21:52:46.964Z,28.87
2018-11-06T21:55:18.431Z,28.40
2018-11-06T21:57:48.385Z,29.73
2018-11-06T22:00:18.591Z,28.33
2018-11-06T22:02:47.045Z,29.10
2018-11-06T22:05:16.495Z,29.10
2018-11-06T22:07:44.979Z,29.43
2018-11-06T22:10:14.282Z,28.07
2018-11-06T22:12:43.279Z,28.97
2018-11-06T22:15:12.513Z,30.13
2018-11-06T22:17:41.190Z,29.53
2018-11-06T22:20:11.146Z,28.47
2018-11-06T22:22:40.265Z,30.77
2018-11-06T22:25:08.466Z,30.40
2018-11-06T22:27:37.066Z,29.87
2018-11-06T22:30:06.694Z,29.07
2018-11-06T22:32:34.998Z,28.73
2018-11-06T22:35:04.005Z,30.17
2018-11-06T22:37:32.271Z,28.67
2018-11-06T22:40:00.460Z,27.43
2018-11-06T22:42:28.593Z,28.90
2018-11-06T22:44:56.761Z,29.03
2018-11-06T22:47:24.953Z,28.17
2018-11-06T22:49:53.118Z,28.37
2018-11-06T22:52:21.266Z,28.77
2018-11-06T22:54:49.402Z,28.93
2018-11-06T22:57:17.683Z,29.17
2018-11-06T22:59:45.969Z,29.17
2018-11-06T23:02:14.116Z,27.07
2018-11-06T23:07:22.211Z,28.77
2018-11-06T23:09:50.336Z,28.23
2018-11-06T23:12:18.573Z,28.30
2018-11-06T23:14:46.736Z,28.40
2018-11-06T23:17:15.258Z,28.70
2018-11-06T23:19:43.492Z,28.07
2018-11-06T23:22:11.677Z,28.87
2018-11-06T23:24:39.933Z,28.63
2018-11-06T23:27:08.073Z,29.53
2018-11-06T23:29:36.233Z,28.97
2018-11-06T23:32:05.606Z,28.70
2018-11-06T23:34:33.755Z,29.43
2018-11-06T23:37:02.443Z,29.57
2018-11-06T23:39:30.622Z,29.00
2018-11-06T23:41:58.761Z,30.40
2018-11-06T23:44:27.062Z,29.13
2018-11-06T23:46:55.415Z,29.20
2018-11-06T23:49:24.449Z,29.87
2018-11-06T23:51:53.553Z,30.33
2018-11-06T23:54:21.750Z,28.87
2018-11-06T23:56:49.880Z,28.33
2018-11-06T23:59:18.005Z,28.77
